Time;durP1;ratioP1;P1;durP2;ratioP2;P2;SDS_P1;SDS_P2;PMS_P1;PMS_P2;Temp;Humidity;BMP_temperature;BMP_pressure;BME280_temperature;BME280_humidity;BME280_pressure;Samples;Min_cycle;Max_cycle;Signal;HPM_P1;HPM_P2
2022/03/02 00:01:26;;;;;;;13.43;8.10;;;-0.50;99.90;;;;;;5208081;28;20492;-74
2022/03/02 00:03:57;;;;;;;15.13;9.75;;;-0.50;99.90;;;;;;5209124;28;20021;-75
2022/03/02 00:06:28;;;;;;;18.80;9.73;;;-0.40;99.90;;;;;;5208980;28;20524;-75
2022/03/02 00:08:59;;;;;;;18.08;9.90;;;-0.40;99.90;;;;;;5209016;28;20663;-75
2022/03/02 00:11:30;;;;;;;15.80;9.73;;;-0.40;99.90;;;;;;5208924;28;20112;-75
2022/03/02 00:14:02;;;;;;;16.95;11.20;;;-0.40;99.90;;;;;;5208885;28;20034;-75
2022/03/02 00:16:35;;;;;;;15.10;9.40;;;-0.60;99.90;;;;;;5208839;28;20006;-75
2022/03/02 00:19:06;;;;;;;17.05;9.20;;;-0.40;99.90;;;;;;5207390;28;20487;-75
2022/03/02 00:21:37;;;;;;;13.77;8.98;;;-0.50;99.90;;;;;;5207343;28;20033;-75
2022/03/02 00:24:08;;;;;;;13.68;8.68;;;-0.50;99.90;;;;;;5207440;28;20029;-74
2022/03/02 00:26:39;;;;;;;16.83;10.32;;;-0.30;99.90;;;;;;5208686;28;20098;-75
2022/03/02 00:29:09;;;;;;;16.02;9.40;;;-0.70;99.90;;;;;;5208488;28;20484;-74
2022/03/02 00:31:41;;;;;;;17.80;10.45;;;-0.90;99.90;;;;;;5208549;28;20500;-75
2022/03/02 00:34:12;;;;;;;12.70;9.07;;;-0.80;99.90;;;;;;5208475;28;20108;-75
2022/03/02 00:36:43;;;;;;;17.58;10.73;;;-0.90;99.90;;;;;;5208497;28;20365;-75
2022/03/02 00:39:14;;;;;;;12.73;8.73;;;-0.70;99.90;;;;;;5208277;28;20033;-75
2022/03/02 00:41:44;;;;;;;13.85;8.50;;;-0.70;99.90;;;;;;5208245;28;20041;-74
2022/03/02 00:44:15;;;;;;;18.13;10.23;;;-1.00;99.90;;;;;;5208319;28;20070;-74
2022/03/02 00:46:46;;;;;;;13.00;8.65;;;-0.90;99.90;;;;;;5208168;28;20047;-74
2022/03/02 00:49:17;;;;;;;16.45;10.50;;;-1.20;99.90;;;;;;5208110;28;20021;-74
2022/03/02 00:51:49;;;;;;;14.65;9.05;;;-0.90;99.90;;;;;;5207997;28;20036;-74
2022/03/02 00:54:20;;;;;;;13.88;8.43;;;-0.80;99.90;;;;;;5208001;28;20127;-74
2022/03/02 00:56:50;;;;;;;14.93;9.65;;;-1.00;99.90;;;;;;5207774;28;20072;-75
2022/03/02 00:59:22;;;;;;;17.23;9.77;;;-1.10;99.90;;;;;;5207522;28;20142;-75
2022/03/02 01:01:53;;;;;;;13.55;8.82;;;-0.90;99.90;;;;;;5208131;28;20033;-75
2022/03/02 01:04:24;;;;;;;16.73;9.50;;;-0.90;99.90;;;;;;5207929;28;20041;-75
2022/03/02 01:06:55;;;;;;;12.23;7.88;;;-1.10;99.90;;;;;;5207792;28;20030;-75
2022/03/02 01:09:26;;;;;;;13.00;8.10;;;-1.40;99.90;;;;;;5207780;28;20029;-74
2022/03/02 01:11:57;;;;;;;15.00;8.98;;;-1.40;99.90;;;;;;5207714;28;20096;-75
2022/03/02 01:14:28;;;;;;;12.25;8.57;;;-1.40;99.90;;;;;;5207705;28;20025;-75
2022/03/02 01:16:59;;;;;;;16.75;8.45;;;-1.40;99.90;;;;;;5207637;28;20023;-74
2022/03/02 01:19:30;;;;;;;13.52;8.65;;;-1.60;99.90;;;;;;5207363;28;20025;-75
2022/03/02 01:22:01;;;;;;;16.83;8.85;;;-1.50;99.90;;;;;;5207451;28;20053;-74
2022/03/02 01:24:32;;;;;;;13.13;7.85;;;-1.50;99.90;;;;;;5207545;28;20476;-75
2022/03/02 01:27:03;;;;;;;14.27;8.77;;;-1.40;99.90;;;;;;5207292;28;20025;-75
2022/03/02 01:29:34;;;;;;;12.50;8.98;;;-1.40;99.90;;;;;;5207459;28;20120;-75
2022/03/02 01:32:08;;;;;;;15.13;8.85;;;-1.40;99.90;;;;;;5207421;28;20537;-75
2022/03/02 01:34:39;;;;;;;11.77;7.60;;;-1.40;99.90;;;;;;5206279;28;20402;-75
2022/03/02 01:37:10;;;;;;;12.23;8.50;;;-1.40;99.90;;;;;;5207315;28;20064;-75
2022/03/02 01:39:41;;;;;;;12.65;7.90;;;-1.40;99.90;;;;;;5207144;28;20029;-75
2022/03/02 01:42:12;;;;;;;11.77;8.55;;;-1.30;99.90;;;;;;5207232;28;20111;-76
2022/03/02 01:44:42;;;;;;;16.05;9.30;;;-1.40;99.90;;;;;;5207211;28;20025;-75
2022/03/02 01:47:13;;;;;;;12.95;7.90;;;-1.50;99.90;;;;;;5207067;28;20030;-75
2022/03/02 01:49:44;;;;;;;10.82;7.45;;;-1.40;99.90;;;;;;5207099;28;20017;-75
2022/03/02 01:52:15;;;;;;;11.63;7.43;;;-1.50;99.90;;;;;;5205689;28;20357;-74
2022/03/02 01:54:46;;;;;;;10.43;7.53;;;-1.80;99.90;;;;;;5206973;28;20550;-75
2022/03/02 01:57:17;;;;;;;11.73;7.13;;;-1.50;99.90;;;;;;5206809;28;20040;-76
2022/03/02 01:59:49;;;;;;;11.25;7.50;;;-1.60;99.90;;;;;;5206571;28;20501;-75
2022/03/02 02:02:20;;;;;;;15.75;8.25;;;-1.50;99.90;;;;;;5206837;28;20105;-76
2022/03/02 02:04:51;;;;;;;13.73;8.55;;;-1.40;99.90;;;;;;5206828;28;20100;-75
2022/03/02 02:07:22;;;;;;;11.68;7.35;;;-1.40;99.90;;;;;;5206816;28;20101;-75
2022/03/02 02:09:59;;;;;;;10.32;7.13;;;-1.60;99.90;;;;;;5206806;28;20017;-75
2022/03/02 02:12:30;;;;;;;10.50;7.68;;;-1.50;99.90;;;;;;5206804;28;20469;-75
2022/03/02 02:15:05;;;;;;;10.90;6.90;;;-1.60;99.90;;;;;;5206791;28;20022;-75
2022/03/02 02:17:37;;;;;;;11.93;8.02;;;-1.60;99.90;;;;;;5206540;28;20087;-75
2022/03/02 02:20:09;;;;;;;10.15;7.20;;;-1.60;99.90;;;;;;5206439;28;20041;-75
2022/03/02 02:22:43;;;;;;;11.85;7.68;;;-1.50;99.90;;;;;;5206147;28;20354;-75
2022/03/02 02:25:16;;;;;;;11.60;7.55;;;-1.50;99.90;;;;;;5206935;28;20025;-75
2022/03/02 02:27:49;;;;;;;11.27;7.25;;;-1.60;99.90;;;;;;5206441;28;20045;-74
2022/03/02 02:30:21;;;;;;;9.93;6.57;;;-1.70;99.90;;;;;;5206530;28;20034;-74
2022/03/02 02:32:52;;;;;;;10.70;7.35;;;-1.60;99.90;;;;;;5206498;28;20450;-74
2022/03/02 02:35:23;;;;;;;12.77;8.57;;;-1.70;99.90;;;;;;5206535;28;20436;-75
2022/03/02 02:37:54;;;;;;;12.52;7.70;;;-1.60;99.90;;;;;;5206432;28;20124;-75
2022/03/02 02:40:27;;;;;;;12.18;7.13;;;-1.60;99.90;;;;;;5206379;28;20042;-75
2022/03/02 02:42:58;;;;;;;9.38;7.15;;;-1.50;99.90;;;;;;5206467;28;20061;-74
2022/03/02 02:45:29;;;;;;;10.55;7.30;;;-2.10;99.90;;;;;;5206380;28;20028;-74
2022/03/02 02:48:00;;;;;;;10.32;7.63;;;-1.80;99.90;;;;;;5206397;28;20035;-74
2022/03/02 02:50:33;;;;;;;10.85;7.63;;;-2.00;99.90;;;;;;5206301;28;20037;-75
2022/03/02 02:53:09;;;;;;;11.02;7.00;;;-1.70;99.90;;;;;;5206258;28;20035;-74
2022/03/02 02:55:42;;;;;;;10.05;7.00;;;-2.00;99.90;;;;;;5206479;28;20049;-74
2022/03/02 02:58:13;;;;;;;12.00;7.80;;;-1.70;99.90;;;;;;5204877;28;20039;-75
2022/03/02 03:00:46;;;;;;;8.77;6.63;;;-1.90;99.90;;;;;;5205940;28;20054;-75
2022/03/02 03:03:19;;;;;;;9.52;6.57;;;-2.20;99.90;;;;;;5206393;28;20373;-74
2022/03/02 03:05:52;;;;;;;10.13;7.00;;;-2.20;99.90;;;;;;5206224;28;20025;-73
2022/03/02 03:08:23;;;;;;;11.18;7.00;;;-1.80;99.90;;;;;;5206063;28;20095;-74
2022/03/02 03:10:54;;;;;;;10.13;7.15;;;-1.90;99.90;;;;;;5206369;28;20031;-74
2022/03/02 03:13:24;;;;;;;10.10;6.75;;;-1.90;99.90;;;;;;5206238;28;20021;-74
2022/03/02 03:15:56;;;;;;;14.02;7.75;;;-1.90;99.90;;;;;;5206145;28;20485;-74
2022/03/02 03:18:27;;;;;;;10.57;6.80;;;-2.00;99.90;;;;;;5206088;28;20428;-73
2022/03/02 03:20:57;;;;;;;11.82;7.45;;;-2.20;99.90;;;;;;5205819;28;20030;-74
2022/03/02 03:23:28;;;;;;;11.07;6.93;;;-2.10;99.90;;;;;;5206082;28;20075;-73
2022/03/02 03:25:59;;;;;;;11.50;7.35;;;-2.20;99.90;;;;;;5206003;28;20029;-73
2022/03/02 03:28:30;;;;;;;10.68;7.30;;;-2.20;99.90;;;;;;5205895;28;20029;-74
2022/03/02 03:31:01;;;;;;;11.02;7.28;;;-2.10;99.90;;;;;;5206022;28;20038;-74
2022/03/02 03:33:32;;;;;;;11.38;6.88;;;-2.10;99.90;;;;;;5205958;28;20022;-73
2022/03/02 03:36:03;;;;;;;12.13;6.82;;;-2.10;99.90;;;;;;5207922;28;20057;-73
2022/03/02 03:38:34;;;;;;;10.20;6.43;;;-1.90;99.90;;;;;;5209663;28;20029;-74
2022/03/02 03:41:05;;;;;;;12.05;7.20;;;-2.20;99.90;;;;;;5209320;28;20048;-74
2022/03/02 03:43:35;;;;;;;11.73;6.95;;;-2.10;99.90;;;;;;5209580;28;20045;-74
2022/03/02 03:46:06;;;;;;;99.65;54.42;;;-2.20;99.90;;;;;;5209402;28;20025;-74
2022/03/02 03:48:37;;;;;;;82.50;46.65;;;-2.60;99.90;;;;;;5209321;28;20542;-73
2022/03/02 03:51:08;;;;;;;63.65;36.33;;;-2.40;99.90;;;;;;5209188;28;20074;-74
2022/03/02 03:53:39;;;;;;;40.35;23.38;;;-2.40;99.90;;;;;;5209224;28;20487;-74
2022/03/02 03:56:10;;;;;;;29.45;17.95;;;-2.50;99.90;;;;;;5209277;28;20014;-74
2022/03/02 03:58:41;;;;;;;21.60;12.27;;;-2.60;99.90;;;;;;5209154;28;20103;-74
2022/03/02 04:01:12;;;;;;;15.35;9.15;;;-2.30;99.90;;;;;;5208858;28;20437;-74
2022/03/02 04:03:42;;;;;;;14.13;8.45;;;-2.50;99.90;;;;;;5209042;28;20103;-74
2022/03/02 04:06:13;;;;;;;9.30;6.30;;;-2.10;99.90;;;;;;5209098;28;20156;-74
2022/03/02 04:08:44;;;;;;;11.93;7.15;;;-2.30;99.90;;;;;;5208917;28;20026;-74
2022/03/02 04:11:15;;;;;;;13.05;7.35;;;-2.30;99.90;;;;;;5209015;28;20092;-74
2022/03/02 04:13:46;;;;;;;10.63;7.55;;;-2.30;99.90;;;;;;5209018;28;20246;-75
2022/03/02 04:16:17;;;;;;;9.98;7.13;;;-2.10;99.90;;;;;;5209029;28;20029;-75
2022/03/02 04:18:48;;;;;;;11.00;6.30;;;-2.40;99.90;;;;;;5208725;28;20103;-74
2022/03/02 04:21:19;;;;;;;13.07;6.45;;;-2.20;99.90;;;;;;5208511;28;20038;-74
2022/03/02 04:23:50;;;;;;;10.32;7.10;;;-2.20;99.90;;;;;;5207458;28;20017;-74
2022/03/02 04:26:21;;;;;;;9.88;6.78;;;-2.30;99.90;;;;;;5208719;28;20036;-73
2022/03/02 04:28:52;;;;;;;11.60;8.02;;;-2.30;99.90;;;;;;5208451;28;20029;-74
2022/03/02 04:31:23;;;;;;;11.90;7.43;;;-2.30;99.90;;;;;;5208715;28;20354;-73
2022/03/02 04:33:54;;;;;;;12.40;7.88;;;-2.40;99.90;;;;;;5207315;28;20036;-74
2022/03/02 04:36:24;;;;;;;13.02;7.05;;;-2.40;99.90;;;;;;5207206;28;20028;-74
2022/03/02 04:38:55;;;;;;;12.27;7.75;;;-2.70;99.90;;;;;;5208478;28;20049;-74
2022/03/02 04:41:26;;;;;;;9.80;6.97;;;-2.30;99.90;;;;;;5208207;28;20041;-74
2022/03/02 04:43:57;;;;;;;9.88;6.97;;;-2.30;99.90;;;;;;5208319;28;20053;-74
2022/03/02 04:46:28;;;;;;;9.10;6.43;;;-2.40;99.90;;;;;;5206610;28;20456;-74
2022/03/02 04:49:10;;;;;;;92.95;51.80;;;-2.30;99.90;;;;;;5208268;28;20017;-74
2022/03/02 04:51:41;;;;;;;61.55;32.90;;;-2.20;99.90;;;;;;5208182;28;20104;-74
2022/03/02 04:55:05;;;;;;;41.55;24.70;;;-2.50;99.90;;;;;;5208137;28;20021;-74
2022/03/02 04:57:03;;;;;;;;;;;-2.60;99.90;;;;;;5208248;28;20029;-75
2022/03/02 04:59:34;;;;;;;10.80;6.75;;;-2.40;99.90;;;;;;5207660;28;20011;-74
2022/03/02 05:02:05;;;;;;;12.00;7.55;;;-2.30;99.90;;;;;;5208038;28;20054;-74
2022/03/02 05:04:36;;;;;;;13.15;7.00;;;-2.30;99.90;;;;;;5207966;28;20453;-73
2022/03/02 05:07:07;;;;;;;18.55;11.30;;;-2.30;99.90;;;;;;5207830;28;20116;-74
2022/03/02 05:09:38;;;;;;;14.90;10.15;;;-2.20;99.90;;;;;;5207868;28;20073;-74
2022/03/02 05:12:09;;;;;;;30.90;18.33;;;-2.20;99.90;;;;;;5207791;28;20358;-74
2022/03/02 05:14:40;;;;;;;47.75;26.63;;;-2.30;99.90;;;;;;5207866;28;20037;-74
2022/03/02 05:17:11;;;;;;;73.97;43.38;;;-2.50;99.90;;;;;;5207677;28;20029;-74
2022/03/02 05:19:42;;;;;;;90.93;50.05;;;-2.40;99.90;;;;;;5207399;28;20105;-74
2022/03/02 05:22:13;;;;;;;62.75;38.55;;;-2.30;99.90;;;;;;5207515;28;20465;-74
2022/03/02 05:24:43;;;;;;;82.00;48.97;;;-2.30;99.90;;;;;;5207517;28;20018;-74
2022/03/02 05:27:14;;;;;;;116.65;67.60;;;-2.50;99.90;;;;;;5207302;28;20104;-75
2022/03/02 05:29:45;;;;;;;116.70;68.30;;;-2.40;99.90;;;;;;5207405;28;20116;-74
2022/03/02 05:32:16;;;;;;;111.32;62.72;;;-2.30;99.90;;;;;;5207377;28;20492;-74
2022/03/02 05:34:47;;;;;;;76.00;44.97;;;-2.20;99.90;;;;;;5207383;28;20461;-74
2022/03/02 05:37:18;;;;;;;76.40;44.40;;;-2.50;99.90;;;;;;5207282;28;20029;-74
2022/03/02 05:39:49;;;;;;;67.53;39.58;;;-2.20;99.90;;;;;;5207024;28;20048;-75
2022/03/02 05:42:20;;;;;;;71.00;45.05;;;-1.80;99.90;;;;;;5207266;28;20078;-75
2022/03/02 05:44:50;;;;;;;67.85;39.47;;;-2.00;99.90;;;;;;5207234;28;20022;-75
2022/03/02 05:47:21;;;;;;;49.00;30.13;;;-1.90;99.90;;;;;;5207019;28;20030;-75
2022/03/02 05:49:52;;;;;;;47.03;28.90;;;-1.60;99.90;;;;;;5207040;28;20583;-75
2022/03/02 05:52:24;;;;;;;43.22;24.50;;;-1.10;99.90;;;;;;5206936;28;20027;-76
2022/03/02 05:54:55;;;;;;;36.78;21.40;;;-1.00;99.90;;;;;;5206895;28;20033;-75
2022/03/02 05:57:25;;;;;;;32.95;19.75;;;-0.60;99.90;;;;;;5206435;28;20101;-75
2022/03/02 05:59:56;;;;;;;31.33;18.95;;;-0.80;99.90;;;;;;5206215;28;20501;-75
2022/03/02 06:02:27;;;;;;;29.20;18.45;;;-0.30;99.90;;;;;;5207099;28;20032;-76
2022/03/02 06:04:58;;;;;;;31.75;18.17;;;-0.50;99.90;;;;;;5206943;28;20432;-75
2022/03/02 06:07:29;;;;;;;37.05;17.75;;;-0.50;99.90;;;;;;5206763;28;20025;-74
2022/03/02 06:10:00;;;;;;;28.45;16.80;;;0.00;99.90;;;;;;5206775;28;20021;-76
2022/03/02 06:12:31;;;;;;;27.70;15.85;;;1.40;99.90;;;;;;5206652;28;20049;-75
2022/03/02 06:15:04;;;;;;;25.17;13.27;;;0.90;99.90;;;;;;5206746;28;20462;-75
2022/03/02 06:17:35;;;;;;;22.75;12.90;;;1.10;99.90;;;;;;5206617;28;20041;-74
2022/03/02 06:20:07;;;;;;;25.85;14.88;;;1.60;99.90;;;;;;5206472;28;20029;-74
2022/03/02 06:22:38;;;;;;;24.75;14.77;;;2.80;99.90;;;;;;5206626;28;20029;-74
2022/03/02 06:25:10;;;;;;;21.77;13.50;;;5.70;99.90;;;;;;5206878;28;20036;-75
2022/03/02 06:27:40;;;;;;;21.75;13.30;;;4.10;99.90;;;;;;5206508;28;20030;-74
2022/03/02 06:30:12;;;;;;;19.10;11.93;;;3.00;99.90;;;;;;5206666;28;20079;-74
2022/03/02 06:32:43;;;;;;;15.52;10.15;;;2.40;99.90;;;;;;5206547;28;20049;-74
2022/03/02 06:35:14;;;;;;;12.00;6.82;;;1.90;99.90;;;;;;5206549;28;20418;-74
2022/03/02 06:37:48;;;;;;;6.00;3.88;;;2.20;99.90;;;;;;5206487;28;20032;-74
2022/03/02 06:40:18;;;;;;;11.70;7.53;;;1.80;99.90;;;;;;5206387;28;20115;-74
2022/03/02 06:43:03;;;;;;;14.63;8.48;;;2.30;99.90;;;;;;5206522;28;20092;-74
2022/03/02 06:45:58;;;;;;;10.45;7.10;;;2.80;99.90;;;;;;5206478;28;20025;-75
2022/03/02 06:48:41;;;;;;;16.92;9.40;;;3.20;99.90;;;;;;5206362;28;20029;-75
2022/03/02 06:51:15;;;;;;;10.70;5.88;;;3.40;99.90;;;;;;5206355;28;20010;-76
2022/03/02 06:53:46;;;;;;;10.15;6.65;;;4.30;99.90;;;;;;5206369;28;20045;-76
2022/03/02 06:56:19;;;;;;;8.55;5.60;;;4.10;99.90;;;;;;5204998;28;20123;-76
2022/03/02 06:59:00;;;;;;;7.75;5.40;;;3.80;99.90;;;;;;5206054;28;20033;-76
2022/03/02 07:01:32;;;;;;;8.52;5.57;;;4.00;99.90;;;;;;5206123;28;20117;-76
2022/03/02 07:04:03;;;;;;;5.28;3.50;;;3.90;99.90;;;;;;5206314;28;20026;-77
2022/03/02 07:06:33;;;;;;;6.95;4.60;;;3.80;99.90;;;;;;5206154;28;20036;-77
2022/03/02 07:09:05;;;;;;;4.90;3.65;;;4.10;99.90;;;;;;5206672;28;20017;-75
2022/03/02 07:11:37;;;;;;;5.47;3.70;;;3.90;99.90;;;;;;5210111;28;20029;-74
2022/03/02 07:14:10;;;;;;;5.53;3.58;;;4.20;99.90;;;;;;5210150;28;20029;-73
2022/03/02 07:16:43;;;;;;;4.72;3.55;;;4.10;99.90;;;;;;5210051;28;20030;-76
2022/03/02 07:19:14;;;;;;;4.20;3.22;;;4.20;99.90;;;;;;5209886;28;20026;-76
2022/03/02 07:21:46;;;;;;;3.50;2.55;;;4.10;99.90;;;;;;5209921;28;20091;-74
2022/03/02 07:24:19;;;;;;;3.40;2.63;;;4.10;99.90;;;;;;5209891;28;20028;-76
2022/03/02 07:26:56;;;;;;;4.78;3.40;;;4.30;99.90;;;;;;5209657;28;20049;-75
2022/03/02 07:29:28;;;;;;;4.70;3.28;;;4.30;99.90;;;;;;5209840;28;20030;-75
2022/03/02 07:31:59;;;;;;;4.03;2.75;;;4.60;99.90;;;;;;5209751;28;20092;-75
2022/03/02 07:34:31;;;;;;;4.78;3.05;;;4.90;99.90;;;;;;5209705;28;20389;-75
2022/03/02 07:37:02;;;;;;;4.68;3.63;;;4.90;99.90;;;;;;5209615;28;20478;-75
2022/03/02 07:39:33;;;;;;;4.15;2.85;;;4.90;99.90;;;;;;5209500;28;20034;-76
2022/03/02 07:42:04;;;;;;;5.65;3.25;;;4.60;99.90;;;;;;5209460;28;20033;-75
2022/03/02 07:44:35;;;;;;;4.93;3.22;;;4.90;99.90;;;;;;5209527;28;20017;-74
2022/03/02 07:47:06;;;;;;;3.50;2.60;;;4.70;99.90;;;;;;5209424;28;20485;-74
2022/03/02 07:49:37;;;;;;;4.55;3.55;;;4.80;99.90;;;;;;5209330;28;20084;-75
2022/03/02 07:52:10;;;;;;;5.78;3.20;;;5.20;99.90;;;;;;5209333;28;20504;-75
2022/03/02 07:54:42;;;;;;;5.30;2.80;;;5.00;99.90;;;;;;5209337;28;20417;-77
2022/03/02 07:57:14;;;;;;;6.20;2.95;;;4.90;99.90;;;;;;5209108;28;20189;-75
2022/03/02 07:59:45;;;;;;;4.55;3.05;;;5.10;99.90;;;;;;5208867;28;20053;-77
2022/03/02 08:02:20;;;;;;;5.25;3.08;;;4.80;99.90;;;;;;5209188;28;20033;-76
2022/03/02 08:04:53;;;;;;;4.90;3.25;;;5.00;99.90;;;;;;5209184;28;20025;-76
2022/03/02 08:07:25;;;;;;;3.78;2.90;;;5.10;99.90;;;;;;5209108;28;20025;-76
2022/03/02 08:09:56;;;;;;;4.05;2.97;;;5.40;99.90;;;;;;5209098;28;20079;-74
2022/03/02 08:12:27;;;;;;;4.63;3.20;;;5.70;99.90;;;;;;5209087;28;20030;-77
2022/03/02 08:14:59;;;;;;;3.22;2.35;;;5.80;99.90;;;;;;5208903;28;20036;-73
2022/03/02 08:17:30;;;;;;;2.70;1.90;;;6.10;99.90;;;;;;5208849;28;20021;-76
2022/03/02 08:20:02;;;;;;;4.72;2.53;;;5.10;99.90;;;;;;5208651;28;20032;-76
2022/03/02 08:22:35;;;;;;;3.97;2.65;;;5.00;99.90;;;;;;5207833;28;20378;-76
2022/03/02 08:25:12;;;;;;;2.95;2.30;;;5.20;99.90;;;;;;5208749;28;20475;-76
2022/03/02 08:27:44;;;;;;;2.72;2.05;;;5.40;99.90;;;;;;5208529;28;20020;-75
2022/03/02 08:30:15;;;;;;;5.50;2.55;;;5.00;99.90;;;;;;5208640;28;20037;-74
2022/03/02 08:32:47;;;;;;;4.38;2.33;;;5.60;99.90;;;;;;5208588;28;20017;-74
2022/03/02 08:35:19;;;;;;;3.72;2.50;;;5.40;99.90;;;;;;5208556;28;20037;-75
2022/03/02 08:37:50;;;;;;;3.13;2.42;;;5.00;99.90;;;;;;5208474;28;20052;-76
2022/03/02 08:40:21;;;;;;;3.42;2.70;;;5.20;99.90;;;;;;5207061;28;20072;-75
2022/03/02 08:42:52;;;;;;;5.70;3.03;;;5.70;99.90;;;;;;5208508;28;20009;-75
2022/03/02 08:45:23;;;;;;;3.78;2.40;;;5.30;99.90;;;;;;5208374;28;20025;-74
2022/03/02 08:47:54;;;;;;;2.90;2.13;;;5.40;99.90;;;;;;5208314;28;20036;-75
2022/03/02 08:50:26;;;;;;;2.20;1.60;;;5.30;99.90;;;;;;5208324;28;20439;-73
2022/03/02 08:52:57;;;;;;;3.70;2.30;;;5.30;99.90;;;;;;5208143;28;20080;-74
2022/03/02 08:55:31;;;;;;;2.92;2.33;;;4.90;99.90;;;;;;5208162;28;20049;-75
2022/03/02 08:58:02;;;;;;;5.63;2.92;;;4.90;99.90;;;;;;5207951;28;20025;-74
2022/03/02 09:00:33;;;;;;;2.65;1.95;;;5.00;99.90;;;;;;5207706;28;20049;-74
2022/03/02 09:03:05;;;;;;;3.03;2.17;;;4.50;99.90;;;;;;5207999;28;20029;-75
2022/03/02 09:05:36;;;;;;;3.15;2.15;;;4.50;99.90;;;;;;5207769;28;20125;-74
2022/03/02 09:08:08;;;;;;;3.40;2.30;;;4.70;99.90;;;;;;5207902;28;20030;-74
2022/03/02 09:10:39;;;;;;;3.47;2.42;;;4.50;99.90;;;;;;5207833;28;20048;-74
2022/03/02 09:13:11;;;;;;;4.13;2.38;;;5.90;99.90;;;;;;5207691;28;20029;-74
2022/03/02 09:15:42;;;;;;;2.80;1.90;;;6.00;99.90;;;;;;5207796;28;20358;-74
2022/03/02 09:18:14;;;;;;;3.90;2.70;;;5.40;99.90;;;;;;5206414;28;20025;-74
2022/03/02 09:20:48;;;;;;;3.55;2.25;;;5.10;99.90;;;;;;5207400;28;20040;-74
2022/03/02 09:23:19;;;;;;;3.67;2.10;;;5.50;99.90;;;;;;5207662;28;20101;-73
2022/03/02 09:25:51;;;;;;;2.97;2.30;;;5.30;99.90;;;;;;5207529;28;20033;-74
2022/03/02 09:28:26;;;;;;;4.75;2.75;;;5.30;99.90;;;;;;5207389;28;20033;-76
2022/03/02 09:30:58;;;;;;;3.92;2.58;;;6.30;99.90;;;;;;5207505;28;20033;-73
2022/03/02 09:33:30;;;;;;;5.93;3.05;;;5.90;99.90;;;;;;5207380;28;20025;-74
2022/03/02 09:36:06;;;;;;;4.57;3.20;;;5.90;99.90;;;;;;5207325;28;20501;-74
2022/03/02 09:38:39;;;;;;;4.18;2.58;;;5.10;99.90;;;;;;5207298;28;20434;-74
2022/03/02 09:41:18;;;;;;;3.97;2.90;;;5.30;99.90;;;;;;5205736;28;20086;-74
2022/03/02 09:43:54;;;;;;;3.70;2.40;;;5.30;99.90;;;;;;5207302;28;20030;-75
2022/03/02 09:46:35;;;;;;;3.50;2.40;;;5.30;99.90;;;;;;5207176;28;20040;-74
2022/03/02 09:49:11;;;;;;;3.53;2.50;;;4.60;99.90;;;;;;5207175;28;20036;-74
2022/03/02 09:51:43;;;;;;;4.57;2.70;;;4.80;99.90;;;;;;5207074;28;20025;-74
2022/03/02 09:54:15;;;;;;;4.03;2.63;;;5.50;99.90;;;;;;5207037;28;20022;-74
2022/03/02 09:56:50;;;;;;;3.90;2.58;;;6.80;99.90;;;;;;5206884;28;20033;-73
2022/03/02 09:59:24;;;;;;;4.13;2.67;;;5.90;99.90;;;;;;5206691;28;20405;-73
2022/03/02 10:01:56;;;;;;;3.13;2.10;;;5.30;99.90;;;;;;5206921;28;20120;-74
2022/03/02 10:04:31;;;;;;;3.38;2.20;;;5.40;99.90;;;;;;5206853;28;20053;-74
2022/03/02 10:07:26;;;;;;;3.90;2.80;;;4.80;99.90;;;;;;5206975;28;20025;-73
2022/03/02 10:10:02;;;;;;;3.60;2.30;;;5.00;99.90;;;;;;5206948;28;20029;-74
2022/03/02 10:12:34;;;;;;;5.72;2.75;;;5.10;99.90;;;;;;5206738;28;20109;-74
2022/03/02 10:15:08;;;;;;;5.43;3.00;;;5.10;99.90;;;;;;5205517;28;20032;-73
2022/03/02 10:17:42;;;;;;;7.13;3.10;;;5.20;99.90;;;;;;5206791;28;20025;-73
2022/03/02 10:20:16;;;;;;;2.80;1.60;;;5.20;99.90;;;;;;5206602;28;20036;-74
2022/03/02 10:23:24;;;;;;;2.95;2.05;;;4.70;99.90;;;;;;5206511;28;20052;-73
2022/03/02 10:26:15;;;;;;;3.60;2.72;;;4.80;99.90;;;;;;5206626;28;20018;-73
2022/03/02 10:28:57;;;;;;;2.70;1.70;;;5.00;99.90;;;;;;5206543;28;20108;-74
2022/03/02 10:31:45;;;;;;;2.25;1.80;;;4.60;99.90;;;;;;5206675;28;20025;-73
2022/03/02 10:34:16;;;;;;;4.32;2.08;;;4.70;99.90;;;;;;5206578;28;20083;-73
2022/03/02 10:36:55;;;;;;;4.20;2.80;;;4.80;99.90;;;;;;5206546;28;20465;-73
2022/03/02 10:39:50;;;;;;;3.08;2.10;;;4.50;99.90;;;;;;5206510;28;20026;-74
2022/03/02 10:42:31;;;;;;;4.00;2.00;;;4.70;99.90;;;;;;5206578;28;20544;-73
2022/03/02 10:45:33;;;;;;;5.32;2.75;;;4.60;99.90;;;;;;5208531;28;20092;-73
2022/03/02 10:48:38;;;;;;;3.65;2.00;;;4.90;99.90;;;;;;5214156;28;20049;-73
2022/03/02 10:51:10;;;;;;;2.22;1.73;;;4.60;99.90;;;;;;5210685;28;20063;-74
2022/03/02 10:53:41;;;;;;;2.85;2.05;;;4.80;99.90;;;;;;5210589;28;20022;-74
2022/03/02 10:56:14;;;;;;;3.63;2.50;;;4.50;99.90;;;;;;5210354;28;20029;-74
2022/03/02 10:58:49;;;;;;;2.72;2.10;;;4.50;99.90;;;;;;5210348;28;20018;-74
2022/03/02 11:01:21;;;;;;;4.18;2.28;;;4.40;99.90;;;;;;5210113;28;20072;-74
2022/03/02 11:03:53;;;;;;;1.90;1.45;;;4.30;99.90;;;;;;5210386;28;20025;-73
2022/03/02 11:06:25;;;;;;;2.35;1.67;;;4.80;99.90;;;;;;5210217;28;20373;-73
2022/03/02 11:09:00;;;;;;;2.38;1.60;;;4.70;99.90;;;;;;5210203;28;20025;-73
2022/03/02 11:11:38;;;;;;;2.85;1.77;;;4.80;99.90;;;;;;5210255;28;20017;-73
2022/03/02 11:14:10;;;;;;;1.92;1.30;;;5.00;99.90;;;;;;5208916;28;20072;-73
2022/03/02 11:16:43;;;;;;;3.45;1.85;;;4.80;99.90;;;;;;5210013;28;20097;-73
2022/03/02 11:19:16;;;;;;;3.03;1.90;;;4.80;99.90;;;;;;5209920;28;20032;-73
2022/03/02 11:21:50;;;;;;;3.75;2.22;;;5.00;99.90;;;;;;5209852;28;20103;-73
2022/03/02 11:24:26;;;;;;;2.70;1.80;;;5.00;99.90;;;;;;5209962;28;20035;-73
2022/03/02 11:26:57;;;;;;;2.22;1.35;;;4.90;99.90;;;;;;5209738;28;20060;-74
2022/03/02 11:29:28;;;;;;;2.60;1.60;;;4.50;99.90;;;;;;5209852;28;20061;-73
2022/03/02 11:32:11;;;;;;;3.80;2.15;;;4.80;99.90;;;;;;5209868;28;20025;-73
2022/03/02 11:34:44;;;;;;;4.78;2.30;;;4.80;99.90;;;;;;5208466;28;20030;-73
2022/03/02 11:37:15;;;;;;;4.90;2.22;;;5.40;99.90;;;;;;5208439;28;20359;-73
2022/03/02 11:39:48;;;;;;;2.33;1.40;;;6.60;99.90;;;;;;5209534;28;20489;-73
2022/03/02 11:42:31;;;;;;;3.22;2.03;;;7.20;99.90;;;;;;5209626;28;20017;-74
2022/03/02 11:45:02;;;;;;;6.18;3.00;;;7.50;99.90;;;;;;5209623;28;20465;-74
2022/03/02 11:47:39;;;;;;;1.70;1.20;;;6.90;99.90;;;;;;5209535;28;20354;-73
2022/03/02 11:50:12;;;;;;;3.05;2.03;;;5.80;99.90;;;;;;5209450;28;20037;-73
2022/03/02 11:52:45;;;;;;;3.10;2.10;;;5.80;99.90;;;;;;5209314;28;20018;-73
2022/03/02 11:55:19;;;;;;;4.03;2.30;;;6.20;99.90;;;;;;5208893;28;20454;-73
2022/03/02 11:57:53;;;;;;;1.80;1.10;;;5.90;99.90;;;;;;5208402;28;20087;-73
2022/03/02 12:00:26;;;;;;;2.10;1.50;;;6.60;99.90;;;;;;5208873;28;20057;-73
2022/03/02 12:03:01;;;;;;;7.13;3.05;;;6.80;99.90;;;;;;5209243;28;20049;-73
2022/03/02 12:05:33;;;;;;;2.25;1.42;;;6.10;99.90;;;;;;5209184;28;20030;-73
2022/03/02 12:08:13;;;;;;;8.52;3.45;;;5.40;99.90;;;;;;5207519;28;20026;-73
2022/03/02 12:10:53;;;;;;;6.35;2.72;;;4.90;99.90;;;;;;5209133;28;20044;-73
2022/03/02 12:13:24;;;;;;;2.47;1.30;;;5.90;99.90;;;;;;5209095;28;20507;-73
2022/03/02 12:15:55;;;;;;;2.40;1.58;;;6.70;99.90;;;;;;5209024;28;20268;-73
2022/03/02 12:18:26;;;;;;;4.28;2.05;;;7.80;99.90;;;;;;5208890;28;20025;-72
2022/03/02 12:20:57;;;;;;;12.63;5.03;;;7.20;99.90;;;;;;5208628;28;21452;-73
2022/03/02 12:23:30;;;;;;;3.80;1.83;;;6.60;99.90;;;;;;5207521;28;20025;-73
2022/03/02 12:26:04;;;;;;;2.53;1.75;;;6.10;99.90;;;;;;5208725;28;20029;-73
2022/03/02 12:28:35;;;;;;;4.65;2.50;;;5.90;99.90;;;;;;5208646;28;20030;-73
2022/03/02 12:31:13;;;;;;;3.38;2.28;;;6.10;99.90;;;;;;5208687;28;20021;-73
2022/03/02 12:33:44;;;;;;;5.50;3.50;;;6.70;99.90;;;;;;5208633;28;20104;-73
2022/03/02 12:36:15;;;;;;;5.05;2.17;;;7.40;99.90;;;;;;5208559;28;20048;-73
2022/03/02 12:38:46;;;;;;;3.10;1.85;;;6.60;99.90;;;;;;5208541;28;20021;-73
2022/03/02 12:41:17;;;;;;;2.95;2.20;;;7.10;99.90;;;;;;5208326;28;20033;-73
2022/03/02 12:43:48;;;;;;;3.50;2.67;;;7.40;99.90;;;;;;5208344;28;20022;-72
2022/03/02 12:46:20;;;;;;;1.33;1.17;;;7.60;99.90;;;;;;5208383;28;20032;-73
2022/03/02 12:48:54;;;;;;;6.22;4.40;;;6.70;99.90;;;;;;5207094;28;20469;-73
2022/03/02 12:51:28;;;;;;;1.20;0.98;;;7.50;99.90;;;;;;5208216;28;20029;-73
2022/03/02 12:53:59;;;;;;;2.65;1.70;;;6.10;99.90;;;;;;5208266;28;20029;-73
2022/03/02 12:56:31;;;;;;;2.08;1.70;;;7.50;99.90;;;;;;5208211;28;20033;-73
2022/03/02 12:59:02;;;;;;;2.40;1.52;;;6.90;99.90;;;;;;5206526;28;20064;-74
2022/03/02 13:01:34;;;;;;;3.72;1.90;;;6.70;99.90;;;;;;5207973;28;20099;-73
2022/03/02 13:04:10;;;;;;;2.35;1.48;;;6.50;99.90;;;;;;5207997;28;20021;-72
2022/03/02 13:06:48;;;;;;;1.52;1.35;;;6.20;99.90;;;;;;5206459;28;20059;-72
2022/03/02 13:09:25;;;;;;;2.83;1.90;;;7.20;99.90;;;;;;5207880;28;20033;-72
2022/03/02 13:12:33;;;;;;;2.33;1.55;;;6.60;99.90;;;;;;5207862;28;20021;-73
2022/03/02 13:15:32;;;;;;;2.25;1.50;;;7.10;99.90;;;;;;5207783;28;20025;-73